createdAt,value
2018-03-08T18:36:37.883Z,19.53
2018-03-08T18:37:41.017Z,16.10
2018-03-08T18:38:42.442Z,16.70
2018-03-08T18:39:43.843Z,17.13
2018-03-08T18:40:46.956Z,16.58
2018-03-08T18:41:50.154Z,13.18
2018-03-08T18:42:51.538Z,10.73
2018-03-08T18:43:54.680Z,8.30
2018-03-08T18:44:56.158Z,7.83
2018-03-08T18:45:58.298Z,7.77
2018-03-08T18:46:59.730Z,6.50
2018-03-08T18:48:01.183Z,5.57
2018-03-08T18:49:02.610Z,7.00
2018-03-08T18:50:04.045Z,5.50
2018-03-08T18:51:05.480Z,5.70
2018-03-08T18:52:08.614Z,6.17
2018-03-08T18:53:11.738Z,5.37
2018-03-08T18:54:14.864Z,5.00
2018-03-08T18:55:17.981Z,4.67
2018-03-08T18:56:21.109Z,4.30
2018-03-08T18:57:24.294Z,4.97
2018-03-08T18:58:27.430Z,4.30
2018-03-08T18:59:28.856Z,4.60
2018-03-08T19:00:31.989Z,3.97
2018-03-08T19:01:34.147Z,4.33
2018-03-08T19:02:37.296Z,4.67
2018-03-08T19:03:39.447Z,4.77
2018-03-08T19:04:43.110Z,6.17
2018-03-08T19:05:46.222Z,7.60
2018-03-08T19:06:49.322Z,7.13
2018-03-08T19:07:52.450Z,5.73
2018-03-08T19:08:55.584Z,7.13
2018-03-08T19:09:58.677Z,6.43
2018-03-08T19:11:01.218Z,7.83
2018-03-08T19:12:02.640Z,6.73
2018-03-08T19:13:04.384Z,7.68
2018-03-08T19:14:07.515Z,7.70
2018-03-08T19:15:08.940Z,13.03
2018-03-08T19:16:12.054Z,13.60
2018-03-08T19:17:13.463Z,17.83
2018-03-08T19:18:16.592Z,15.70
2018-03-08T19:19:17.996Z,16.27
2018-03-08T19:20:19.430Z,18.30
2018-03-08T19:21:22.565Z,17.63
2018-03-08T19:22:23.979Z,15.50
2018-03-08T19:23:26.774Z,10.77
2018-03-08T19:24:28.171Z,12.07
2018-03-08T19:25:29.587Z,8.13
2018-03-08T19:26:32.688Z,7.80
2018-03-08T19:27:34.127Z,7.40
2018-03-08T19:28:37.735Z,5.80
2018-03-08T19:29:39.164Z,6.57
2018-03-08T19:30:41.332Z,6.17
2018-03-08T19:31:43.499Z,4.33
2018-03-08T19:32:46.629Z,3.87
2018-03-08T19:33:48.061Z,5.60
2018-03-08T19:34:50.550Z,3.60
2018-03-08T19:35:51.983Z,3.47
2018-03-08T19:36:55.099Z,4.70
2018-03-08T19:37:56.519Z,3.27
2018-03-08T19:38:59.944Z,3.83
2018-03-08T19:40:03.108Z,2.97
2018-03-08T19:41:04.476Z,3.13
2018-03-08T19:42:05.894Z,4.23
2018-03-08T19:43:08.426Z,3.30
2018-03-08T19:44:11.133Z,4.27
2018-03-08T19:45:12.538Z,3.13
2018-03-08T19:46:15.649Z,2.60
2018-03-08T19:47:17.067Z,2.10
2018-03-08T19:48:19.605Z,2.30
2018-03-08T19:49:22.731Z,2.23
2018-03-08T19:50:24.151Z,1.97
2018-03-08T19:51:27.272Z,1.93
2018-03-08T19:52:30.736Z,2.40
2018-03-08T19:53:33.837Z,2.00
2018-03-08T19:54:35.638Z,3.30
2018-03-08T19:55:37.822Z,2.00
2018-03-08T19:56:39.243Z,2.20
2018-03-08T19:57:40.895Z,2.03
2018-03-08T19:58:42.311Z,2.10
2018-03-08T19:59:43.737Z,2.33
2018-03-08T20:00:45.172Z,3.07
2018-03-08T20:01:46.638Z,2.00
2018-03-08T20:02:48.049Z,1.40
2018-03-08T20:03:49.473Z,1.60
2018-03-08T20:04:51.643Z,1.60
2018-03-08T20:05:53.062Z,2.13
2018-03-08T20:06:54.500Z,2.60
2018-03-08T20:07:57.615Z,3.47
2018-03-08T20:09:00.505Z,2.13
2018-03-08T20:10:03.022Z,1.83
2018-03-08T20:11:04.439Z,1.73
2018-03-08T20:12:06.592Z,1.50
2018-03-08T20:13:10.303Z,1.30
2018-03-08T20:14:12.458Z,1.33
2018-03-08T20:15:13.897Z,1.07
2018-03-08T20:16:15.307Z,1.03
2018-03-08T20:17:16.724Z,1.43
2018-03-08T20:18:19.839Z,1.37
2018-03-08T20:19:22.358Z,1.47
2018-03-08T20:20:23.812Z,2.03
2018-03-08T20:21:25.303Z,3.10
2018-03-08T20:22:26.719Z,3.13
2018-03-08T20:23:28.104Z,3.17
2018-03-08T20:24:29.523Z,4.57
2018-03-08T20:25:31.091Z,5.43
2018-03-08T20:26:33.231Z,5.50
2018-03-08T20:27:34.653Z,3.57
2018-03-08T20:28:37.782Z,2.50
2018-03-08T20:29:40.905Z,1.83
2018-03-08T20:30:42.354Z,2.28
2018-03-08T20:31:43.758Z,3.13
2018-03-08T20:32:46.301Z,3.70
2018-03-08T20:33:48.455Z,5.35
2018-03-08T20:34:51.348Z,4.40
2018-03-08T20:35:52.781Z,4.97
2018-03-08T20:36:55.666Z,5.03
2018-03-08T20:37:57.120Z,4.37
2018-03-08T20:38:58.546Z,3.63
2018-03-08T20:39:59.985Z,3.43
2018-03-08T20:41:02.501Z,3.20
2018-03-08T20:42:03.922Z,3.37
2018-03-08T20:43:06.071Z,3.53
2018-03-08T20:44:07.486Z,4.20
2018-03-08T20:45:08.891Z,6.07
2018-03-08T20:46:11.139Z,5.43
2018-03-08T20:47:12.561Z,7.13
2018-03-08T20:48:13.961Z,7.43
2018-03-08T20:49:15.383Z,6.83
2018-03-08T20:50:16.789Z,3.47
2018-03-08T20:51:18.981Z,4.40
2018-03-08T20:52:20.429Z,5.03
2018-03-08T20:53:21.826Z,5.23
2018-03-08T20:54:23.215Z,4.03
2018-03-08T20:55:24.641Z,4.77
2018-03-08T20:56:26.057Z,5.13
2018-03-08T20:57:27.455Z,4.83
2018-03-08T20:58:28.883Z,7.73
2018-03-08T20:59:30.289Z,8.10
2018-03-08T21:00:32.418Z,6.83
2018-03-08T21:01:33.827Z,5.83
2018-03-08T21:02:35.219Z,3.60
2018-03-08T21:03:36.641Z,2.85
2018-03-08T21:04:38.077Z,8.87
2018-03-08T21:05:41.525Z,9.67
2018-03-08T21:06:42.955Z,4.00
2018-03-08T21:07:44.396Z,5.90
2018-03-08T21:08:46.543Z,4.37
2018-03-08T21:10:24.076Z,5.03
2018-03-08T21:11:26.953Z,5.20
2018-03-08T21:12:29.525Z,3.57
2018-03-08T21:13:31.669Z,5.53
2018-03-08T21:14:33.091Z,4.07
2018-03-08T21:15:34.519Z,2.40
2018-03-08T21:16:35.947Z,3.53
2018-03-08T21:17:38.109Z,3.47
2018-03-08T21:18:41.409Z,2.47
2018-03-08T21:19:43.573Z,2.43
2018-03-08T21:20:45.762Z,4.93
2018-03-08T21:21:47.993Z,3.53
2018-03-08T21:22:49.413Z,7.83
2018-03-08T21:23:50.846Z,7.35
2018-03-08T21:24:53.014Z,5.50
2018-03-08T21:25:54.465Z,4.72
2018-03-08T21:26:57.643Z,4.00
2018-03-08T21:27:59.025Z,3.70
2018-03-08T21:29:00.423Z,3.00
2018-03-08T21:30:02.612Z,3.70
2018-03-08T21:31:05.522Z,3.30
2018-03-08T21:32:07.678Z,2.20
2018-03-08T21:33:09.154Z,1.90
2018-03-08T21:34:12.046Z,1.70
2018-03-08T21:35:14.205Z,2.50
2018-03-08T21:36:16.384Z,2.92
2018-03-08T21:37:18.564Z,1.97
2018-03-08T21:38:19.991Z,1.30
2018-03-08T21:39:22.523Z,1.20
2018-03-08T21:40:23.954Z,1.10
2018-03-08T21:42:08.295Z,1.30
2018-03-08T21:43:11.523Z,1.27
2018-03-08T21:44:12.938Z,1.20
2018-03-08T21:45:14.365Z,1.70
2018-03-08T21:46:15.787Z,1.70
2018-03-08T21:47:17.196Z,3.50
2018-03-08T21:48:19.371Z,7.37
2018-03-08T21:49:22.269Z,11.40
2018-03-08T21:50:23.672Z,4.63
2018-03-08T21:51:25.081Z,3.80
2018-03-08T21:52:26.493Z,5.30
2018-03-08T21:53:29.026Z,1.93
2018-03-08T21:54:30.437Z,2.83
2018-03-08T21:55:32.577Z,1.30
2018-03-08T21:56:35.458Z,2.20
2018-03-08T21:57:36.877Z,2.85
2018-03-08T21:58:38.274Z,1.50
2018-03-08T21:59:41.262Z,1.97
2018-03-08T22:00:42.654Z,1.47
2018-03-08T22:01:45.534Z,1.70
2018-03-08T22:02:46.958Z,0.80
2018-03-08T22:03:49.105Z,1.10
2018-03-08T22:04:50.517Z,1.60
2018-03-08T22:05:51.929Z,1.30
2018-03-08T22:06:53.321Z,1.30
2018-03-08T22:07:55.821Z,1.77
2018-03-08T22:09:41.993Z,1.00
2018-03-08T22:10:43.416Z,1.07
2018-03-08T22:11:44.819Z,1.20
2018-03-08T22:12:46.217Z,1.20
2018-03-08T22:13:47.637Z,1.13
2018-03-08T22:16:17.459Z,2.23
2018-03-08T22:17:18.866Z,1.63
2018-03-08T22:18:20.275Z,1.23
2018-03-08T22:19:23.409Z,1.10
2018-03-08T22:20:24.827Z,0.83
2018-03-08T22:21:27.953Z,0.80
2018-03-08T22:22:30.537Z,1.10
2018-03-08T22:23:32.310Z,1.77
2018-03-08T22:24:33.726Z,1.07
2018-03-08T22:25:35.889Z,1.30
2018-03-08T22:26:39.029Z,0.80
2018-03-08T22:27:41.221Z,1.62
2018-03-08T22:28:42.638Z,0.87
2018-03-08T22:29:44.046Z,0.90
2018-03-08T22:30:46.205Z,0.80
2018-03-08T22:32:27.119Z,1.00
2018-03-08T22:33:30.248Z,0.80
2018-03-08T22:34:31.662Z,2.13
2018-03-08T22:35:33.802Z,0.70
2018-03-08T22:36:35.212Z,0.93
2018-03-08T22:37:36.653Z,0.70
2018-03-08T22:38:39.850Z,0.77
2018-03-08T22:39:41.989Z,0.80
2018-03-08T22:41:03.873Z,0.87
2018-03-08T22:42:05.289Z,0.80
2018-03-08T22:43:07.002Z,0.80
2018-03-08T22:44:08.402Z,0.73
2018-03-08T22:45:09.939Z,0.73
2018-03-08T22:46:11.405Z,0.77
2018-03-08T22:47:12.797Z,0.80
2018-03-08T22:48:14.197Z,3.20
2018-03-08T22:49:16.339Z,1.20
2018-03-08T22:50:17.769Z,1.33
2018-03-08T22:51:19.174Z,2.03
2018-03-08T22:52:21.321Z,1.17
2018-03-08T22:53:23.783Z,1.50
2018-03-08T22:54:58.961Z,2.00
2018-03-08T22:56:00.363Z,2.33
2018-03-08T22:58:47.655Z,2.80
2018-03-08T23:00:39.534Z,1.80
2018-03-08T23:04:35.497Z,1.40
2018-03-08T23:05:38.480Z,2.27
2018-03-08T23:06:39.945Z,2.50
2018-03-08T23:07:41.349Z,2.20
2018-03-08T23:08:42.753Z,1.67
2018-03-08T23:09:45.672Z,1.55
2018-03-08T23:10:47.077Z,2.23
2018-03-08T23:11:48.495Z,1.87
2018-03-08T23:12:49.903Z,1.70
2018-03-08T23:13:51.321Z,1.60
2018-03-08T23:14:53.136Z,1.57
2018-03-08T23:15:55.665Z,1.77
2018-03-08T23:16:57.094Z,1.50
2018-03-08T23:18:45.470Z,1.50
2018-03-08T23:19:46.861Z,1.53
2018-03-08T23:20:48.575Z,1.90
2018-03-08T23:21:49.997Z,1.70
2018-03-08T23:22:52.165Z,1.80
2018-03-08T23:23:55.275Z,1.20
2018-03-08T23:24:56.693Z,1.40
2018-03-08T23:25:58.407Z,2.13
2018-03-08T23:26:59.808Z,2.53
2018-03-08T23:28:01.214Z,1.40
2018-03-08T23:29:02.680Z,1.30
2018-03-08T23:30:04.118Z,1.20
2018-03-08T23:31:05.542Z,1.30
2018-03-08T23:32:06.957Z,1.48
2018-03-08T23:33:11.057Z,1.33
2018-03-08T23:34:12.457Z,1.60
2018-03-08T23:35:13.862Z,1.30
2018-03-08T23:36:15.561Z,1.30
2018-03-08T23:37:16.961Z,1.60
2018-03-08T23:38:18.362Z,1.53
2018-03-08T23:39:19.761Z,1.63
2018-03-08T23:40:21.179Z,1.58
2018-03-08T23:41:22.858Z,1.40
2018-03-08T23:42:24.318Z,1.93
2018-03-08T23:43:26.444Z,1.20
2018-03-08T23:44:51.469Z,1.40
2018-03-08T23:45:52.870Z,1.20
2018-03-08T23:46:54.294Z,1.80
2018-03-08T23:47:55.697Z,1.37
2018-03-08T23:48:57.126Z,1.10
2018-03-08T23:49:58.536Z,1.17
2018-03-08T23:51:00.687Z,1.13
2018-03-08T23:52:02.111Z,1.57
2018-03-08T23:53:55.967Z,1.23
2018-03-08T23:54:58.132Z,3.03
2018-03-08T23:56:00.873Z,1.70
2018-03-08T23:57:02.306Z,2.25
2018-03-08T23:58:04.500Z,1.30
2018-03-08T23:59:05.913Z,1.80
